Tipton Airport
KFME : now visible

Airfield :











YOU CAN JOIN US ON...

 
LOGIN :

Register | Disclaimer

   EN    FR    IT 

 









Legend :    VFR   Marginal VFR   IFR   Intensive IFR   Very Intensive IFR
Visi :
Ceiling :
>= 8 km
>= 3000ft
5 to 8 km
1000 to 3000 ft
1500m to 5 km
500 to 1000 ft
800 to 1500m
200 to 500 ft
< 800m
< 200 ft
Symbols :   Thunderstorms  Fog  Heavy snow  Heavy precipitations  Wind > 20 kt






- Airport Elevation : 150 ft


KFME - Tipton

CURRENT METAR :
  • 120215Z AUTO 29010G14KT 10SM CLR 00/M07 A3055 RMK AO1

EXPIRED METARs :
  • 120154Z AUTO 30009KT 10SM CLR 00/M07 A3054 RMK AO1
  • 120133Z AUTO 30010G15KT 10SM CLR 00/M07 A3053 RMK AO1
  • 120115Z AUTO 30007KT 10SM CLR 00/M07 A3052 RMK AO1
  • 120054Z AUTO 31003KT 10SM CLR 00/M08 A3051 RMK AO1
  • 120033Z AUTO 30005KT 10SM CLR 00/M07 A3050 RMK AO1
  • 120015Z AUTO 30005KT 10SM CLR 00/M07 A3049 RMK AO1
  • 112354Z AUTO 29007KT 10SM CLR 00/M06 A3048 RMK AO1
  • 112333Z AUTO 30005KT 10SM CLR M01/M03 A3047 RMK AO1

TAF N/A



MET'MAP, your aeronautical weather chart ! - Copyright ORBIFLY December 2007 - Disclaimer

ORBIFLY MET'MAP TEAM :

Programming & Development : Alexandra Zaïnal
Concept & original design : Baudouin d'Aumeries
Assistance for programming : Marc-Olivier Méhu
Technical & hardware support : Manuel Goepfert

Contact : metmap@orbifly.com




SOURCES & CREDITS :

   NOAA       Earth
Advisory